Time;durP1;ratioP1;P1;durP2;ratioP2;P2;SDS_P1;SDS_P2;PMS_P1;PMS_P2;Temp;Humidity;BMP_temperature;BMP_pressure;BME280_temperature;BME280_humidity;BME280_pressure;Samples;Min_cycle;Max_cycle;Signal;HPM_P1;HPM_P2
2022/07/23 00:00:56;;;;;;;4.28;3.05;;;;;;;23.60;35.28;94150.50;4988274;28;20025;-75
2022/07/23 00:03:21;;;;;;;5.57;3.45;;;;;;;23.48;35.67;94153.53;4990752;28;20076;-75
2022/07/23 00:05:47;;;;;;;5.18;3.28;;;;;;;23.55;35.40;94153.59;4988150;28;20602;-76
2022/07/23 00:08:12;;;;;;;5.72;3.15;;;;;;;23.35;35.75;94142.31;4989299;28;20017;-76
2022/07/23 00:10:38;;;;;;;5.15;4.05;;;;;;;23.47;35.56;94157.41;4988346;28;20456;-75
2022/07/23 00:13:03;;;;;;;6.35;3.40;;;;;;;23.44;35.51;94153.53;4988079;28;20084;-76
2022/07/23 00:15:29;;;;;;;5.32;4.22;;;;;;;23.46;35.60;94164.03;4985885;28;20033;-76
2022/07/23 00:17:54;;;;;;;4.60;3.05;;;;;;;23.39;35.59;94161.28;4990789;28;20038;-77
2022/07/23 00:20:20;;;;;;;6.50;3.28;;;;;;;23.27;36.33;94161.69;4988936;28;20045;-77
2022/07/23 00:22:48;;;;;;;4.32;3.33;;;;;;;23.26;36.58;94168.25;4991008;28;20034;-76
2022/07/23 00:25:14;;;;;;;5.05;3.53;;;;;;;23.22;37.20;94173.66;4987682;28;20018;-75
2022/07/23 00:27:39;;;;;;;7.03;2.90;;;;;;;23.07;37.44;94159.28;4988476;28;20477;-75
2022/07/23 00:30:05;;;;;;;4.50;3.45;;;;;;;23.07;37.41;94166.66;4989283;28;20026;-76
2022/07/23 00:32:31;;;;;;;4.57;3.65;;;;;;;22.99;37.06;94154.22;4990393;28;20064;-76
2022/07/23 00:34:56;;;;;;;5.28;4.10;;;;;;;23.06;37.22;94156.97;4987965;28;20029;-75
2022/07/23 00:37:21;;;;;;;6.72;4.35;;;;;;;23.12;37.13;94167.03;4990165;28;20270;-76
2022/07/23 00:39:47;;;;;;;6.63;3.78;;;;;;;23.23;37.26;94177.16;4988374;28;20117;-75
2022/07/23 00:42:12;;;;;;;5.13;3.58;;;;;;;23.14;36.90;94172.09;4988149;28;20029;-75
2022/07/23 00:44:38;;;;;;;6.50;3.30;;;;;;;22.88;37.05;94143.34;4987972;28;20032;-75
2022/07/23 00:47:05;;;;;;;5.60;3.17;;;;;;;23.01;36.77;94173.63;4993874;28;20072;-76
2022/07/23 00:49:31;;;;;;;4.00;3.13;;;;;;;23.02;36.84;94170.53;4988895;28;20022;-76
2022/07/23 00:51:57;;;;;;;4.22;3.83;;;;;;;22.77;36.39;94136.31;4988326;28;20024;-76
2022/07/23 00:54:25;;;;;;;5.45;4.20;;;;;;;22.94;36.69;94168.16;4988520;28;20034;-76
2022/07/23 00:56:51;;;;;;;6.40;3.78;;;;;;;22.95;36.82;94159.66;4990811;28;20026;-76
2022/07/23 00:59:16;;;;;;;6.88;3.53;;;;;;;22.91;36.98;94158.88;4987014;28;20133;-76
2022/07/23 01:01:43;;;;;;;6.78;3.60;;;;;;;22.68;37.52;94140.16;4989992;28;20021;-76
2022/07/23 01:04:09;;;;;;;5.72;3.83;;;;;;;22.77;37.59;94147.94;4987551;28;20029;-75
2022/07/23 01:06:36;;;;;;;4.43;3.67;;;;;;;22.75;37.85;94161.09;5005462;28;20033;-76
2022/07/23 01:09:03;;;;;;;5.95;4.10;;;;;;;22.69;37.76;94147.13;4993204;28;20037;-76
2022/07/23 01:11:30;;;;;;;5.13;3.88;;;;;;;22.85;37.91;94165.78;4994023;28;20486;-76
2022/07/23 01:13:55;;;;;;;7.10;3.75;;;;;;;22.56;38.39;94145.16;4995692;28;20029;-76
2022/07/23 01:16:20;;;;;;;6.80;3.90;;;;;;;22.53;38.75;94151.34;4994050;28;20026;-77
2022/07/23 01:18:46;;;;;;;8.30;3.92;;;;;;;22.55;38.63;94157.13;4994882;28;20147;-76
2022/07/23 01:21:13;;;;;;;5.50;4.05;;;;;;;22.48;38.99;94162.53;4994418;28;20434;-75
2022/07/23 01:23:38;;;;;;;6.68;4.70;;;;;;;22.37;39.11;94151.66;4993929;28;20061;-76
2022/07/23 01:26:04;;;;;;;6.05;3.97;;;;;;;22.41;39.01;94151.66;4996903;28;20116;-76
2022/07/23 01:28:30;;;;;;;5.55;4.13;;;;;;;22.27;39.19;94142.31;4992607;28;20030;-76
2022/07/23 01:30:55;;;;;;;5.07;3.63;;;;;;;22.30;39.58;94160.50;4995362;28;20077;-75
2022/07/23 01:33:20;;;;;;;7.40;4.55;;;;;;;22.26;39.42;94157.00;4994390;28;20431;-76
2022/07/23 01:35:46;;;;;;;5.40;4.38;;;;;;;22.15;39.79;94141.81;5009691;28;20026;-76
2022/07/23 01:38:11;;;;;;;6.03;4.43;;;;;;;22.32;39.64;94154.72;4992245;28;20426;-76
2022/07/23 01:40:36;;;;;;;5.65;4.18;;;;;;;22.16;39.66;94157.69;4995117;28;20033;-75
2022/07/23 01:43:02;;;;;;;6.20;4.35;;;;;;;22.23;39.66;94146.94;4996271;28;20220;-76
2022/07/23 01:45:27;;;;;;;4.53;3.97;;;;;;;22.18;39.17;94139.13;4993597;28;20489;-76
2022/07/23 01:47:53;;;;;;;5.28;3.63;;;;;;;22.28;38.72;94151.22;4995773;28;20019;-76
2022/07/23 01:50:18;;;;;;;5.35;4.15;;;;;;;22.38;38.41;94152.44;4993653;28;20356;-76
2022/07/23 01:52:44;;;;;;;8.93;4.32;;;;;;;22.23;38.39;94125.25;4995274;28;20026;-76
2022/07/23 01:55:09;;;;;;;5.75;3.55;;;;;;;22.39;38.30;94156.69;4993686;28;20072;-76
2022/07/23 01:57:34;;;;;;;7.65;3.67;;;;;;;22.14;38.28;94119.38;4995645;28;20030;-76
2022/07/23 02:00:00;;;;;;;4.38;3.72;;;;;;;22.28;38.15;94152.00;4994193;28;20073;-76
2022/07/23 02:02:25;;;;;;;7.60;3.65;;;;;;;22.29;37.63;94156.22;4993837;28;20022;-77
2022/07/23 02:04:51;;;;;;;6.28;4.10;;;;;;;22.22;37.31;94139.19;4993483;28;20667;-76
2022/07/23 02:07:17;;;;;;;5.63;4.20;;;;;;;22.15;37.28;94131.75;4995687;28;20036;-75
2022/07/23 02:09:42;;;;;;;7.85;3.63;;;;;;;22.36;37.20;94152.00;4992789;28;20502;-76
2022/07/23 02:12:08;;;;;;;4.20;3.25;;;;;;;22.28;36.98;94133.03;4994473;28;20025;-76
2022/07/23 02:14:33;;;;;;;5.25;3.28;;;;;;;22.37;36.74;94150.88;4993722;28;20380;-76
2022/07/23 02:16:58;;;;;;;6.35;3.40;;;;;;;22.27;36.73;94126.03;4995239;28;20128;-76
2022/07/23 02:19:24;;;;;;;6.60;4.15;;;;;;;22.46;36.75;94154.00;4993237;28;20039;-75
2022/07/23 02:21:50;;;;;;;7.30;3.92;;;;;;;22.46;36.50;94149.38;4991130;28;20041;-76
2022/07/23 02:24:15;;;;;;;5.47;4.18;;;;;;;22.34;36.68;94146.22;4991491;28;20393;-76
2022/07/23 02:26:41;;;;;;;7.00;3.80;;;;;;;22.06;37.00;94136.72;4992081;28;20157;-76
2022/07/23 02:29:07;;;;;;;5.38;3.47;;;;;;;22.23;37.30;94146.16;4991702;28;20443;-75
2022/07/23 02:31:33;;;;;;;5.30;3.50;;;;;;;22.24;36.79;94153.88;4990779;28;20593;-76
2022/07/23 02:33:59;;;;;;;4.25;3.28;;;;;;;22.13;37.19;94136.78;4990742;28;20033;-76
2022/07/23 02:36:24;;;;;;;4.65;3.72;;;;;;;22.09;37.95;94135.22;4992479;28;20026;-76
2022/07/23 02:38:50;;;;;;;7.88;4.10;;;;;;;22.17;37.89;94156.53;4990562;28;20385;-76
2022/07/23 02:41:15;;;;;;;6.28;3.60;;;;;;;22.16;37.59;94156.91;4991454;28;20117;-76
2022/07/23 02:43:41;;;;;;;7.05;4.03;;;;;;;21.58;37.86;94073.75;4990597;28;20499;-76
2022/07/23 02:46:07;;;;;;;10.25;3.90;;;;;;;22.16;37.74;94157.69;4990888;28;20089;-76
2022/07/23 02:48:32;;;;;;;6.60;4.20;;;;;;;22.18;37.66;94166.22;4992058;28;20041;-76
2022/07/23 02:50:58;;;;;;;7.57;4.15;;;;;;;22.06;38.10;94169.22;4991160;28;20943;-76
2022/07/23 02:53:23;;;;;;;7.63;4.32;;;;;;;21.57;37.75;94093.06;4991932;28;20027;-76
2022/07/23 02:55:49;;;;;;;5.60;4.05;;;;;;;22.00;38.02;94165.31;4990376;28;20032;-76
2022/07/23 02:58:14;;;;;;;7.15;5.22;;;;;;;21.92;38.47;94169.13;4991175;28;20088;-76
2022/07/23 03:00:40;;;;;;;5.30;3.58;;;;;;;21.80;38.63;94170.19;4990678;28;20109;-76
2022/07/23 03:03:06;;;;;;;7.05;3.72;;;;;;;21.83;38.87;94166.75;4990543;28;20041;-76
2022/07/23 03:05:32;;;;;;;5.28;4.15;;;;;;;21.78;38.86;94180.63;4990000;28;20148;-75
2022/07/23 03:07:57;;;;;;;7.18;4.65;;;;;;;21.68;38.62;94164.31;4995838;28;20454;-76
2022/07/23 03:10:22;;;;;;;4.68;4.25;;;;;;;21.76;38.48;94176.75;4988600;28;20050;-76
2022/07/23 03:12:48;;;;;;;6.22;4.03;;;;;;;21.84;38.66;94167.53;4990172;28;20026;-76
2022/07/23 03:15:13;;;;;;;5.53;4.10;;;;;;;21.86;38.73;94170.63;4987816;28;20029;-76
2022/07/23 03:17:38;;;;;;;8.95;3.90;;;;;;;21.73;38.87;94174.78;5004457;28;20482;-76
2022/07/23 03:20:04;;;;;;;4.65;3.72;;;;;;;21.73;39.04;94191.81;4996689;28;20026;-75
2022/07/23 03:22:30;;;;;;;6.22;4.45;;;;;;;21.68;39.26;94172.44;4991225;28;20034;-76
2022/07/23 03:24:55;;;;;;;6.40;4.55;;;;;;;21.79;39.29;94194.97;4989912;28;21101;-76
2022/07/23 03:27:26;;;;;;;5.40;4.38;;;;;;;21.71;39.87;94201.44;4989028;28;20573;-76
2022/07/23 03:29:53;;;;;;;5.97;3.78;;;;;;;21.59;39.92;94199.81;4989772;28;20029;-75
2022/07/23 03:32:19;;;;;;;7.20;3.88;;;;;;;21.41;40.13;94191.50;4990063;28;20123;-77
2022/07/23 03:34:44;;;;;;;6.70;4.55;;;;;;;21.43;40.56;94197.31;4990487;28;20033;-75
2022/07/23 03:37:10;;;;;;;7.75;3.97;;;;;;;21.21;40.55;94168.50;4989284;28;20029;-76
2022/07/23 03:39:36;;;;;;;6.40;4.55;;;;;;;21.28;41.08;94171.28;4990423;28;20028;-76
2022/07/23 03:42:01;;;;;;;6.75;4.50;;;;;;;21.42;41.61;94195.75;4988991;28;20026;-76
2022/07/23 03:44:27;;;;;;;10.50;5.10;;;;;;;21.41;41.25;94190.75;4990060;28;20429;-77
2022/07/23 03:46:52;;;;;;;6.80;4.47;;;;;;;21.60;42.00;94206.00;4990437;28;20022;-76
2022/07/23 03:49:18;;;;;;;6.32;4.43;;;;;;;21.66;41.87;94201.78;4989312;28;20212;-76
2022/07/23 03:51:43;;;;;;;7.22;4.93;;;;;;;21.65;41.88;94202.97;5003623;28;20026;-75
2022/07/23 03:54:09;;;;;;;5.93;4.68;;;;;;;21.65;42.24;94202.97;4989514;28;20042;-75
2022/07/23 03:56:35;;;;;;;7.82;4.57;;;;;;;21.70;42.06;94211.53;4990234;28;20483;-75
2022/07/23 03:59:00;;;;;;;8.82;5.65;;;;;;;21.70;42.25;94194.50;4990044;28;21098;-76
2022/07/23 04:01:26;;;;;;;5.03;4.25;;;;;;;21.79;42.21;94198.44;4989727;28;20026;-76
2022/07/23 04:03:51;;;;;;;7.80;4.68;;;;;;;21.88;42.23;94200.81;4988687;28;20061;-76
2022/07/23 04:06:17;;;;;;;7.28;5.00;;;;;;;21.84;42.17;94183.78;4988383;28;20018;-76
2022/07/23 04:08:43;;;;;;;5.88;4.80;;;;;;;22.04;42.65;94204.06;4990144;28;20278;-76
2022/07/23 04:11:08;;;;;;;7.18;4.97;;;;;;;22.00;42.88;94192.38;4989371;28;20097;-76
2022/07/23 04:13:33;;;;;;;7.57;5.57;;;;;;;22.12;42.94;94205.66;4988872;28;20156;-75
2022/07/23 04:15:59;;;;;;;6.53;5.15;;;;;;;22.10;42.92;94202.53;4989712;28;20037;-76
2022/07/23 04:18:24;;;;;;;11.27;6.10;;;;;;;22.19;42.23;94194.09;4989300;28;20167;-75
2022/07/23 04:20:53;;;;;;;8.77;6.00;;;;;;;22.25;42.07;94190.66;4990576;28;20398;-76
2022/07/23 04:23:18;;;;;;;9.60;6.05;;;;;;;22.30;41.78;94189.53;4988324;28;20033;-76
2022/07/23 04:25:44;;;;;;;10.45;6.22;;;;;;;22.23;41.25;94201.13;4988411;28;20026;-75
2022/07/23 04:28:09;;;;;;;11.18;6.38;;;;;;;22.29;41.21;94205.00;4987343;28;20077;-76
2022/07/23 04:30:34;;;;;;;9.55;6.22;;;;;;;22.26;41.13;94196.84;4987847;28;20117;-76
2022/07/23 04:33:00;;;;;;;8.07;6.28;;;;;;;22.45;41.25;94206.66;4991833;28;20752;-76
2022/07/23 04:35:26;;;;;;;9.00;6.63;;;;;;;22.50;41.41;94215.19;4988841;28;20029;-76
2022/07/23 04:37:51;;;;;;;12.18;7.25;;;;;;;22.40;41.62;94193.44;4988064;28;20030;-76
2022/07/23 04:40:16;;;;;;;11.32;5.90;;;;;;;22.51;41.19;94205.13;4988440;28;20565;-76
2022/07/23 04:42:42;;;;;;;7.88;5.35;;;;;;;22.11;41.03;94144.50;4988504;28;20383;-76
2022/07/23 04:45:08;;;;;;;14.55;6.90;;;;;;;22.49;41.23;94212.84;4994521;28;20235;-76
2022/07/23 04:47:33;;;;;;;8.38;5.75;;;;;;;22.53;41.39;94214.47;4987140;28;20034;-76
2022/07/23 04:49:58;;;;;;;7.15;5.60;;;;;;;22.58;41.20;94205.19;4989573;28;20029;-76
2022/07/23 04:52:24;;;;;;;12.57;6.20;;;;;;;22.54;40.15;94194.31;4987573;28;20360;-75
2022/07/23 04:54:50;;;;;;;8.50;6.63;;;;;;;22.51;39.77;94213.25;5004942;28;20029;-76
2022/07/23 04:57:15;;;;;;;9.60;6.55;;;;;;;22.33;40.58;94231.34;4987938;28;20735;-75
2022/07/23 04:59:41;;;;;;;9.20;6.30;;;;;;;22.30;41.15;94219.31;4989500;28;20021;-76
2022/07/23 05:02:06;;;;;;;9.95;6.78;;;;;;;22.59;40.74;94217.56;4989174;28;20077;-76
2022/07/23 05:04:32;;;;;;;9.02;6.22;;;;;;;22.77;40.45;94217.66;4989738;28;20030;-77
2022/07/23 05:06:58;;;;;;;11.60;6.70;;;;;;;22.93;39.98;94227.06;5003014;28;20080;-76
2022/07/23 05:09:24;;;;;;;11.27;6.60;;;;;;;23.19;40.26;94226.00;4985295;28;20053;-76
2022/07/23 05:11:49;;;;;;;11.60;6.38;;;;;;;23.17;39.97;94205.84;4989804;28;20077;-76
2022/07/23 05:14:15;;;;;;;9.70;6.43;;;;;;;23.26;39.20;94207.03;4985373;28;20040;-76
2022/07/23 05:16:40;;;;;;;8.82;7.00;;;;;;;23.27;38.96;94215.94;4989527;28;20045;-76
2022/07/23 05:19:06;;;;;;;10.05;6.32;;;;;;;23.24;38.88;94227.56;4988219;28;20061;-76
2022/07/23 05:21:32;;;;;;;10.73;5.85;;;;;;;23.21;38.52;94206.63;4989523;28;20133;-76
2022/07/23 05:23:57;;;;;;;6.95;5.35;;;;;;;23.47;38.48;94230.69;4988634;28;20298;-76
2022/07/23 05:26:23;;;;;;;7.30;5.78;;;;;;;23.60;38.28;94237.38;4980000;28;20050;-76
2022/07/23 05:28:48;;;;;;;7.53;5.05;;;;;;;23.60;38.05;94223.03;4992760;28;20070;-76
2022/07/23 05:31:14;;;;;;;6.82;5.38;;;;;;;23.77;38.67;94233.88;4983067;28;20037;-76
2022/07/23 05:33:39;;;;;;;14.35;6.35;;;;;;;23.72;37.64;94215.25;4986768;28;20056;-77
2022/07/23 05:36:05;;;;;;;6.90;5.43;;;;;;;23.41;37.56;94181.47;4993220;28;20478;-76
2022/07/23 05:38:32;;;;;;;6.88;4.55;;;;;;;23.82;37.82;94236.22;4987139;28;20117;-76
2022/07/23 05:40:57;;;;;;;9.25;5.97;;;;;;;23.87;38.82;94214.13;4989197;28;20025;-76
2022/07/23 05:43:23;;;;;;;12.27;7.07;;;;;;;23.96;38.84;94228.06;4993947;28;20033;-75
2022/07/23 05:45:48;;;;;;;8.65;5.38;;;;;;;24.22;38.62;94234.31;4985936;28;20100;-76
2022/07/23 05:48:14;;;;;;;8.43;5.40;;;;;;;23.91;37.58;94222.25;4987154;28;20027;-76
2022/07/23 05:50:39;;;;;;;6.68;4.97;;;;;;;24.12;38.63;94235.09;4987994;28;20466;-76
2022/07/23 05:53:04;;;;;;;15.70;6.03;;;;;;;24.22;38.95;94207.13;4989700;28;20029;-77
2022/07/23 05:55:31;;;;;;;9.43;5.72;;;;;;;24.38;38.88;94231.97;4990670;28;20542;-77
2022/07/23 05:57:57;;;;;;;6.97;5.72;;;;;;;24.47;38.86;94229.63;4987717;28;20072;-76
2022/07/23 06:00:23;;;;;;;12.35;7.13;;;;;;;24.48;39.76;94236.63;4989789;28;20022;-74
2022/07/23 06:02:49;;;;;;;9.98;6.25;;;;;;;24.62;39.06;94220.28;4990898;28;20029;-74
2022/07/23 06:05:15;;;;;;;9.13;7.00;;;;;;;24.77;38.82;94210.94;4992335;28;20590;-74
2022/07/23 06:07:40;;;;;;;7.30;5.63;;;;;;;24.88;38.32;94204.69;4989595;28;20243;-74
2022/07/23 06:10:06;;;;;;;13.65;6.47;;;;;;;25.08;38.50;94213.91;4993726;28;20161;-74
2022/07/23 06:12:31;;;;;;;11.10;6.25;;;;;;;25.12;38.32;94220.91;4988817;28;20030;-75
2022/07/23 06:14:57;;;;;;;7.80;5.47;;;;;;;24.94;38.57;94192.19;4990942;28;20565;-75
2022/07/23 06:17:22;;;;;;;7.05;5.38;;;;;;;25.21;38.67;94209.59;4990220;28;20038;-74
2022/07/23 06:19:48;;;;;;;11.77;6.20;;;;;;;25.43;37.77;94219.22;4990473;28;20026;-74
2022/07/23 06:22:13;;;;;;;9.02;6.18;;;;;;;25.52;37.77;94221.47;4995708;28;20700;-75
2022/07/23 06:24:38;;;;;;;9.18;5.60;;;;;;;25.50;38.34;94219.19;4988276;28;20034;-74
2022/07/23 06:27:04;;;;;;;6.15;5.13;;;;;;;25.38;37.60;94222.34;4996736;28;20482;-75
2022/07/23 06:29:29;;;;;;;10.60;5.90;;;;;;;25.60;37.78;94223.78;4990598;28;20026;-75
2022/07/23 06:31:55;;;;;;;10.10;6.13;;;;;;;25.66;37.89;94205.81;4990399;28;20037;-74
2022/07/23 06:34:20;;;;;;;8.45;6.32;;;;;;;25.69;37.10;94204.25;4991980;28;20036;-74
2022/07/23 06:36:46;;;;;;;8.75;5.78;;;;;;;25.87;37.13;94223.19;4990556;28;20033;-75
2022/07/23 06:39:11;;;;;;;8.38;5.72;;;;;;;25.88;37.22;94219.31;4991695;28;20049;-74
2022/07/23 06:41:36;;;;;;;7.13;5.95;;;;;;;25.95;36.34;94211.13;4993168;28;20079;-73
2022/07/23 06:44:02;;;;;;;11.80;6.53;;;;;;;26.11;36.31;94220.31;4991514;28;20045;-75
2022/07/23 06:46:28;;;;;;;11.07;6.30;;;;;;;26.22;35.38;94219.44;4988527;28;20041;-74
2022/07/23 06:48:53;;;;;;;10.88;5.55;;;;;;;26.17;35.97;94223.38;4990169;28;20026;-75
2022/07/23 06:51:19;;;;;;;9.40;4.55;;;;;;;26.37;35.89;94215.41;4989841;28;20321;-75
2022/07/23 06:53:44;;;;;;;6.95;5.07;;;;;;;26.35;35.30;94215.81;4997049;28;20026;-74
2022/07/23 06:56:10;;;;;;;8.80;5.68;;;;;;;26.27;34.88;94192.53;4985387;28;20037;-75
2022/07/23 06:58:35;;;;;;;7.03;5.18;;;;;;;26.46;35.35;94202.09;4987850;28;20038;-75
2022/07/23 07:01:01;;;;;;;5.38;4.53;;;;;;;26.11;34.63;94195.78;4987976;28;20018;-75
2022/07/23 07:03:26;;;;;;;6.78;5.40;;;;;;;26.46;34.39;94215.75;4985527;28;20030;-75
2022/07/23 07:05:53;;;;;;;6.55;4.90;;;;;;;26.16;34.64;94216.38;4987596;28;20136;-75
2022/07/23 07:08:18;;;;;;;8.15;5.43;;;;;;;25.90;34.55;94211.53;4987528;28;20107;-75
2022/07/23 07:10:43;;;;;;;8.05;5.70;;;;;;;25.95;35.10;94216.56;4987278;28;20022;-75
2022/07/23 07:13:09;;;;;;;7.32;5.70;;;;;;;26.18;35.26;94214.03;4985476;28;20077;-75
2022/07/23 07:15:34;;;;;;;6.57;5.13;;;;;;;26.05;35.55;94174.84;4988335;28;20432;-75
2022/07/23 07:18:00;;;;;;;9.15;5.95;;;;;;;26.44;34.67;94210.69;4987022;28;20053;-76
2022/07/23 07:20:25;;;;;;;6.85;5.50;;;;;;;26.49;34.78;94214.94;4986828;28;20057;-74
2022/07/23 07:22:51;;;;;;;9.60;5.80;;;;;;;25.95;34.93;94201.00;4987817;28;20479;-76
2022/07/23 07:25:16;;;;;;;8.25;5.68;;;;;;;25.98;35.46;94199.41;4988073;28;20065;-74
2022/07/23 07:27:43;;;;;;;9.02;5.68;;;;;;;26.24;35.97;94201.53;4989198;28;20025;-75
2022/07/23 07:30:10;;;;;;;6.88;5.45;;;;;;;26.40;35.69;94176.41;4985224;28;20033;-74
2022/07/23 07:32:36;;;;;;;10.27;6.20;;;;;;;26.59;37.00;94196.94;4987246;28;20036;-75
2022/07/23 07:35:05;;;;;;;7.05;5.43;;;;;;;26.16;35.82;94189.13;4988460;28;20237;-75
2022/07/23 07:37:31;;;;;;;11.35;6.55;;;;;;;26.35;35.90;94172.19;4990223;28;20924;-75
2022/07/23 07:39:56;;;;;;;10.85;7.30;;;;;;;26.54;35.02;94181.78;4990229;28;20025;-74
2022/07/23 07:42:22;;;;;;;6.22;5.57;;;;;;;26.72;35.24;94192.50;4988935;28;20486;-75
2022/07/23 07:44:47;;;;;;;6.97;5.25;;;;;;;26.94;35.27;94194.56;5002627;28;20494;-75
2022/07/23 07:47:15;;;;;;;8.35;5.30;;;;;;;27.14;34.32;94196.69;4988019;28;20470;-75
2022/07/23 07:49:41;;;;;;;6.18;5.53;;;;;;;27.18;34.66;94179.06;4976768;28;20729;-75
2022/07/23 07:52:06;;;;;;;10.55;6.10;;;;;;;27.22;33.95;94188.00;4987017;28;20033;-76
2022/07/23 07:54:32;;;;;;;8.05;5.78;;;;;;;27.41;35.02;94189.31;4984388;28;20029;-76
2022/07/23 07:56:57;;;;;;;6.53;5.28;;;;;;;26.73;34.67;94114.94;4987813;28;20254;-75
2022/07/23 07:59:23;;;;;;;9.60;6.50;;;;;;;27.12;34.99;94178.00;4986671;28;20085;-75
2022/07/23 08:01:48;;;;;;;7.68;6.63;;;;;;;27.30;35.72;94178.53;4987913;28;20129;-75
2022/07/23 08:04:13;;;;;;;7.32;5.85;;;;;;;27.37;34.24;94172.94;4992243;28;20707;-75
2022/07/23 08:06:39;;;;;;;7.97;5.82;;;;;;;27.42;34.76;94188.13;4987833;28;20033;-76
2022/07/23 08:09:04;;;;;;;8.98;6.32;;;;;;;27.38;34.96;94181.91;4989512;28;20042;-75
2022/07/23 08:11:30;;;;;;;8.55;5.75;;;;;;;27.40;34.98;94166.69;5002365;28;20037;-76
2022/07/23 08:13:55;;;;;;;27.80;6.47;;;;;;;27.65;33.85;94179.22;4988748;28;20026;-76
2022/07/23 08:16:21;;;;;;;6.57;5.70;;;;;;;27.72;34.17;94176.38;4990062;28;20026;-75
2022/07/23 08:18:46;;;;;;;10.32;6.22;;;;;;;27.81;33.84;94184.84;4993224;28;20038;-76
2022/07/23 08:21:12;;;;;;;10.50;6.15;;;;;;;27.38;34.01;94149.94;4992461;28;20033;-75
2022/07/23 08:23:37;;;;;;;8.70;6.03;;;;;;;27.73;33.79;94178.72;4984388;28;20038;-76
2022/07/23 08:26:02;;;;;;;8.73;6.10;;;;;;;27.86;34.60;94186.34;4987380;28;20512;-76
2022/07/23 08:28:28;;;;;;;6.35;5.35;;;;;;;27.85;34.21;94174.63;4987232;28;20026;-75
2022/07/23 08:30:53;;;;;;;11.60;6.18;;;;;;;27.53;34.17;94174.31;4990426;28;20036;-75
2022/07/23 08:33:19;;;;;;;8.00;6.13;;;;;;;27.57;33.99;94181.28;4988267;28;20052;-76
2022/07/23 08:35:47;;;;;;;9.23;5.85;;;;;;;27.32;34.11;94159.78;4987582;28;20034;-75
2022/07/23 08:38:15;;;;;;;9.20;6.30;;;;;;;27.55;34.61;94177.41;4988333;28;20026;-75
2022/07/23 08:40:52;;;;;;;9.77;6.15;;;;;;;27.50;34.46;94184.09;4988788;28;20513;-75
2022/07/23 08:43:23;;;;;;;12.30;6.32;;;;;;;27.34;36.02;94187.44;4986107;28;20254;-75
2022/07/23 08:45:51;;;;;;;11.82;7.00;;;;;;;27.39;34.74;94183.47;4988055;28;20030;-75
2022/07/23 08:48:17;;;;;;;11.25;6.97;;;;;;;27.22;34.64;94182.56;4980999;28;20034;-75
2022/07/23 08:50:54;;;;;;;12.82;6.75;;;;;;;27.37;35.90;94177.66;4983307;28;20342;-75
2022/07/23 08:53:21;;;;;;;10.98;6.65;;;;;;;27.40;34.78;94166.69;4986463;28;20029;-76
2022/07/23 08:55:49;;;;;;;8.50;5.80;;;;;;;27.42;36.10;94169.75;4984989;28;20044;-76
2022/07/23 08:58:15;;;;;;;7.47;6.50;;;;;;;27.44;35.38;94171.31;4986176;28;20034;-75
2022/07/23 09:00:41;;;;;;;8.00;6.13;;;;;;;27.47;35.27;94170.50;4988705;28;20470;-75
2022/07/23 09:03:06;;;;;;;10.30;7.20;;;;;;;27.64;34.70;94170.25;4980275;28;20045;-75
2022/07/23 09:05:32;;;;;;;6.85;6.15;;;;;;;27.83;34.69;94161.38;4981081;28;20034;-75
2022/07/23 09:08:08;;;;;;;12.68;5.70;;;;;;;28.04;34.18;94160.25;4982171;28;20133;-76
2022/07/23 09:10:50;;;;;;;10.48;6.30;;;;;;;28.17;34.02;94165.91;4981281;28;20065;-75
2022/07/23 09:13:28;;;;;;;9.88;6.82;;;;;;;28.14;33.11;94170.28;4981584;28;20041;-75
2022/07/23 09:15:57;;;;;;;8.55;6.07;;;;;;;28.23;32.85;94170.50;4982171;28;20029;-76
2022/07/23 09:18:38;;;;;;;10.50;6.22;;;;;;;28.25;31.81;94156.41;4983128;28;20469;-75
2022/07/23 09:21:07;;;;;;;9.85;5.40;;;;;;;28.17;32.40;94158.50;4986819;28;20394;-74
2022/07/23 09:23:44;;;;;;;7.07;5.60;;;;;;;28.27;33.63;94164.19;4980446;28;20569;-76
2022/07/23 09:26:18;;;;;;;7.70;6.00;;;;;;;28.34;32.44;94161.34;5001872;28;20442;-74
2022/07/23 09:28:57;;;;;;;8.55;5.45;;;;;;;28.44;33.80;94166.63;4992402;28;20113;-76
2022/07/23 09:31:24;;;;;;;8.40;6.85;;;;;;;28.63;32.53;94162.34;4991496;28;20069;-75
2022/07/23 09:33:50;;;;;;;8.40;6.03;;;;;;;28.75;33.13;94163.69;4992194;28;20033;-75
2022/07/23 09:36:26;;;;;;;7.50;5.72;;;;;;;28.77;32.13;94144.91;4985769;28;20029;-75
2022/07/23 09:38:52;;;;;;;10.20;5.95;;;;;;;28.88;31.32;94143.50;4988881;28;20029;-76
2022/07/23 09:41:17;;;;;;;7.07;5.80;;;;;;;29.07;29.60;94152.88;4990339;28;20045;-76
2022/07/23 09:43:43;;;;;;;11.50;6.80;;;;;;;28.97;28.46;94149.19;4990854;28;20034;-76
2022/07/23 09:46:23;;;;;;;7.82;5.47;;;;;;;28.94;29.75;94139.06;4981842;28;20034;-75
2022/07/23 09:48:48;;;;;;;8.80;6.00;;;;;;;28.96;29.24;94136.69;5000855;28;20523;-75
2022/07/23 09:51:35;;;;;;;6.32;5.07;;;;;;;29.14;26.93;94147.25;4987179;28;20032;-76
2022/07/23 09:54:01;;;;;;;5.57;4.55;;;;;;;29.24;26.79;94142.75;4987008;28;20449;-76
2022/07/23 09:56:28;;;;;;;5.97;4.32;;;;;;;29.22;26.70;94136.94;4984852;28;20030;-75
2022/07/23 09:59:05;;;;;;;6.30;3.20;;;;;;;29.36;25.17;94137.41;4982461;28;20072;-75
2022/07/23 10:01:32;;;;;;;7.15;3.33;;;;;;;29.17;30.16;94132.75;4985308;28;20025;-76
2022/07/23 10:03:58;;;;;;;8.18;4.85;;;;;;;28.94;27.13;94133.59;4986919;28;20025;-75
2022/07/23 10:06:24;;;;;;;7.63;4.97;;;;;;;28.95;26.51;94135.13;4986220;28;20037;-75
2022/07/23 10:08:50;;;;;;;6.97;4.85;;;;;;;28.91;27.06;94122.72;4986726;28;20052;-76
2022/07/23 10:11:16;;;;;;;12.70;5.07;;;;;;;28.89;27.62;94114.16;4982973;28;20033;-75
2022/07/23 10:14:03;;;;;;;6.07;4.80;;;;;;;29.01;27.61;94132.66;4982419;28;20021;-76
2022/07/23 10:16:29;;;;;;;7.95;4.75;;;;;;;28.93;27.39;94123.84;4985221;28;20030;-75
2022/07/23 10:18:54;;;;;;;8.38;4.30;;;;;;;28.89;27.37;94123.13;4984878;28;20037;-75
2022/07/23 10:21:27;;;;;;;6.57;4.18;;;;;;;28.94;27.39;94122.63;4985526;28;20046;-76
2022/07/23 10:24:10;;;;;;;8.77;4.75;;;;;;;29.01;25.42;94125.22;4991182;28;20041;-75
2022/07/23 10:26:41;;;;;;;8.40;4.68;;;;;;;29.05;25.98;94105.97;4985856;28;20124;-75
2022/07/23 10:29:43;;;;;;;10.50;4.32;;;;;;;29.03;24.61;94114.63;4987424;28;20433;-75
2022/07/23 10:32:16;;;;;;;13.18;4.55;;;;;;;29.17;27.75;94112.81;4988325;28;20026;-75
2022/07/23 10:34:52;;;;;;;6.97;5.05;;;;;;;29.38;26.38;94112.34;4988071;28;20042;-76
2022/07/23 10:37:27;;;;;;;9.50;4.55;;;;;;;29.29;28.32;94103.91;4989814;28;20026;-76
2022/07/23 10:40:12;;;;;;;6.45;4.45;;;;;;;29.54;25.31;94098.63;4984480;28;20026;-76
2022/07/23 10:42:38;;;;;;;5.63;4.88;;;;;;;29.65;25.47;94104.63;4985797;28;20420;-75
2022/07/23 10:45:24;;;;;;;5.93;4.07;;;;;;;29.79;23.63;94090.63;5001630;28;20115;-76
2022/07/23 10:47:53;;;;;;;8.90;4.78;;;;;;;29.87;26.17;94094.72;4978517;28;20535;-76
2022/07/23 10:50:18;;;;;;;7.18;4.82;;;;;;;29.97;23.75;94092.91;4989431;28;20539;-76
2022/07/23 10:53:19;;;;;;;7.10;4.18;;;;;;;30.05;23.48;94088.78;4988531;28;20121;-76
2022/07/23 10:55:48;;;;;;;8.02;3.65;;;;;;;30.08;23.62;94089.88;4965372;28;20030;-77
2022/07/23 10:58:19;;;;;;;8.90;3.85;;;;;;;30.12;26.06;94083.09;4982005;28;20045;-75
2022/07/23 11:00:44;;;;;;;5.80;4.65;;;;;;;30.14;23.70;94077.19;4991637;28;20157;-75
2022/07/23 11:03:36;;;;;;;7.47;4.10;;;;;;;30.32;23.98;94080.25;4989637;28;20022;-75
2022/07/23 11:06:02;;;;;;;10.73;3.90;;;;;;;30.19;23.47;94065.72;4988979;28;20309;-75
2022/07/23 11:08:28;;;;;;;9.38;4.75;;;;;;;30.25;23.06;94069.50;4995789;28;20058;-76
2022/07/23 11:11:15;;;;;;;7.78;4.55;;;;;;;30.40;22.95;94073.38;4990216;28;20103;-74
2022/07/23 11:13:46;;;;;;;7.60;4.45;;;;;;;30.24;20.27;94062.47;4989883;28;20384;-76
2022/07/23 11:16:23;;;;;;;4.38;2.97;;;;;;;30.11;21.53;94048.66;4990968;28;20026;-75
2022/07/23 11:18:48;;;;;;;6.00;3.22;;;;;;;30.19;20.20;94065.72;4991271;28;20038;-74
2022/07/23 11:21:23;;;;;;;9.07;4.15;;;;;;;29.96;20.41;94065.94;4991140;28;20029;-76
2022/07/23 11:24:06;;;;;;;10.60;4.47;;;;;;;30.21;19.29;94055.09;4989306;28;20994;-75
2022/07/23 11:26:38;;;;;;;7.45;3.30;;;;;;;30.38;20.24;94053.84;4993948;28;20084;-75
2022/07/23 11:29:30;;;;;;;5.03;3.40;;;;;;;30.14;23.78;94056.03;4984220;28;20040;-77
2022/07/23 11:31:55;;;;;;;9.95;3.38;;;;;;;30.20;21.33;94048.06;4987816;28;20057;-75